Time;durP1;ratioP1;P1;durP2;ratioP2;P2;SDS_P1;SDS_P2;PMS_P1;PMS_P2;Temp;Humidity;BMP_temperature;BMP_pressure;BME280_temperature;BME280_humidity;BME280_pressure;Samples;Min_cycle;Max_cycle;Signal;HPM_P1;HPM_P2
2021/12/31 00:01:32;;;;;;;12.00;11.50;;;14.80;99.90;;;;;;5052117;28;20551;-72
2021/12/31 00:03:58;;;;;;;11.60;11.20;;;14.80;99.90;;;;;;5052148;28;20464;-73
2021/12/31 00:06:25;;;;;;;11.30;10.90;;;14.90;99.90;;;;;;5052012;28;20455;-73
2021/12/31 00:08:52;;;;;;;11.70;11.20;;;14.80;99.90;;;;;;5051975;28;20443;-72
2021/12/31 00:11:18;;;;;;;11.83;11.33;;;14.80;99.90;;;;;;5051894;28;20459;-73
2021/12/31 00:13:46;;;;;;;11.63;11.17;;;14.80;99.90;;;;;;5051735;28;20451;-73
2021/12/31 00:16:13;;;;;;;11.70;11.30;;;14.80;99.90;;;;;;5051701;28;21231;-72
2021/12/31 00:18:40;;;;;;;11.20;10.80;;;14.80;99.90;;;;;;5051521;28;20448;-73
2021/12/31 00:21:07;;;;;;;10.53;10.23;;;14.80;99.90;;;;;;5051874;28;20458;-71
2021/12/31 00:23:33;;;;;;;11.10;10.70;;;14.80;99.90;;;;;;5051358;28;20519;-70
2021/12/31 00:26:00;;;;;;;11.40;11.00;;;14.80;99.90;;;;;;5051401;28;20476;-71
2021/12/31 00:28:27;;;;;;;11.57;11.17;;;14.70;99.90;;;;;;5051603;28;20459;-71
2021/12/31 00:30:55;;;;;;;11.23;10.90;;;14.80;99.90;;;;;;5050873;28;20505;-71
2021/12/31 00:33:23;;;;;;;10.83;10.43;;;14.70;99.90;;;;;;5051148;28;20459;-71
2021/12/31 00:35:50;;;;;;;11.40;11.00;;;14.70;99.90;;;;;;5051600;28;20883;-71
2021/12/31 00:38:17;;;;;;;11.60;11.10;;;14.70;99.90;;;;;;5051506;28;20452;-71
2021/12/31 00:40:44;;;;;;;11.40;11.00;;;14.70;99.90;;;;;;5051083;28;20448;-71
2021/12/31 00:43:11;;;;;;;11.70;11.30;;;14.70;99.90;;;;;;5051369;28;20483;-70
2021/12/31 00:45:40;;;;;;;11.87;11.47;;;14.60;99.90;;;;;;5051124;28;20458;-72
2021/12/31 00:48:09;;;;;;;11.90;11.33;;;14.60;99.90;;;;;;5051494;28;20510;-71
2021/12/31 00:50:36;;;;;;;12.30;11.80;;;14.60;99.90;;;;;;5051349;28;20509;-71
2021/12/31 00:53:04;;;;;;;11.60;11.00;;;14.50;99.90;;;;;;5051050;28;20452;-73
2021/12/31 00:55:30;;;;;;;11.63;11.23;;;14.50;99.90;;;;;;5050994;28;20467;-72
2021/12/31 00:57:57;;;;;;;12.27;11.87;;;14.50;99.90;;;;;;5050940;28;20456;-71
2021/12/31 01:00:24;;;;;;;11.47;11.07;;;14.50;99.90;;;;;;5051124;28;20451;-71
2021/12/31 01:02:51;;;;;;;11.77;11.27;;;14.50;99.90;;;;;;5050989;28;20484;-72
2021/12/31 01:05:20;;;;;;;11.50;11.10;;;14.50;99.90;;;;;;5051034;28;20451;-73
2021/12/31 01:07:46;;;;;;;11.40;11.00;;;14.50;99.90;;;;;;5050734;28;20794;-73
2021/12/31 01:10:16;;;;;;;11.70;11.20;;;14.30;99.90;;;;;;5050881;28;20448;-73
2021/12/31 01:12:43;;;;;;;11.87;11.40;;;14.40;99.90;;;;;;5050906;28;20810;-72
2021/12/31 01:15:17;;;;;;;12.03;11.53;;;14.40;99.90;;;;;;5050819;28;20452;-73
2021/12/31 01:18:13;;;;;;;11.97;11.57;;;14.40;99.90;;;;;;5050770;28;20447;-72
2021/12/31 01:20:39;;;;;;;12.60;12.00;;;14.30;99.90;;;;;;5050530;28;20440;-72
2021/12/31 01:23:08;;;;;;;11.80;11.30;;;14.30;99.90;;;;;;5050773;28;20488;-72
2021/12/31 01:25:36;;;;;;;12.00;11.57;;;14.30;99.90;;;;;;5050340;28;20997;-73
2021/12/31 01:28:03;;;;;;;12.10;11.70;;;14.30;99.90;;;;;;5050963;28;20440;-73
2021/12/31 01:30:30;;;;;;;11.70;11.20;;;14.20;99.90;;;;;;5050659;28;20452;-72
2021/12/31 01:32:56;;;;;;;12.17;11.73;;;14.20;99.90;;;;;;5050458;28;21132;-73
2021/12/31 01:35:23;;;;;;;13.00;12.30;;;14.20;99.90;;;;;;5050295;28;20832;-73
2021/12/31 01:37:51;;;;;;;12.30;11.70;;;14.10;99.90;;;;;;5050811;28;20501;-73
2021/12/31 01:40:18;;;;;;;12.00;11.50;;;14.00;99.90;;;;;;5050719;28;20885;-73
2021/12/31 01:42:44;;;;;;;12.40;11.80;;;13.90;99.90;;;;;;5053027;28;20487;-73
2021/12/31 01:45:17;;;;;;;11.80;11.40;;;13.90;99.90;;;;;;5054393;28;20454;-73
2021/12/31 01:47:59;;;;;;;12.20;11.70;;;13.80;99.90;;;;;;5054805;28;20776;-74
2021/12/31 01:50:27;;;;;;;12.60;11.70;;;13.70;99.90;;;;;;5054540;28;20456;-73
2021/12/31 01:52:56;;;;;;;12.40;11.80;;;13.60;99.90;;;;;;5054436;28;20454;-73
2021/12/31 01:55:23;;;;;;;12.47;11.97;;;13.50;99.90;;;;;;5054296;28;20458;-73
2021/12/31 01:57:52;;;;;;;12.43;11.93;;;13.50;99.90;;;;;;5054461;28;20448;-73
2021/12/31 02:00:18;;;;;;;11.80;11.30;;;13.50;99.90;;;;;;5054479;28;20447;-72
2021/12/31 02:02:47;;;;;;;12.37;11.87;;;13.40;99.90;;;;;;5053899;28;20491;-73
2021/12/31 02:05:14;;;;;;;12.60;12.10;;;13.40;99.90;;;;;;5054243;28;20459;-72
2021/12/31 02:07:40;;;;;;;11.80;11.40;;;13.40;99.90;;;;;;5054171;28;20448;-73
2021/12/31 02:10:10;;;;;;;12.20;11.70;;;13.40;99.90;;;;;;5054176;28;20455;-72
2021/12/31 02:12:41;;;;;;;12.57;11.97;;;13.30;99.90;;;;;;5054143;28;20470;-73
2021/12/31 02:15:09;;;;;;;11.80;11.40;;;13.20;99.90;;;;;;5054092;28;20477;-72
2021/12/31 02:17:35;;;;;;;12.10;11.60;;;13.20;99.90;;;;;;5054224;28;20455;-73
2021/12/31 02:20:05;;;;;;;11.90;11.40;;;13.20;99.90;;;;;;5054181;28;20451;-83
2021/12/31 03:23:30;;;;;;;12.30;11.70;;;12.40;99.90;;;;;;4934843;29;20639;-77
2021/12/31 03:25:56;;;;;;;12.23;11.73;;;12.40;99.90;;;;;;4943693;29;20453;-77
2021/12/31 03:28:24;;;;;;;12.30;11.80;;;12.40;99.90;;;;;;4941848;29;20454;-76
2021/12/31 03:30:51;;;;;;;12.30;11.90;;;12.30;99.90;;;;;;4943450;29;20449;-76
2021/12/31 03:33:17;;;;;;;12.60;12.10;;;12.30;99.90;;;;;;4943769;29;20453;-76
2021/12/31 03:35:44;;;;;;;13.03;12.17;;;12.30;99.90;;;;;;4941908;29;20457;-77
2021/12/31 03:38:12;;;;;;;12.57;12.03;;;12.20;99.90;;;;;;4942942;29;20452;-77
2021/12/31 03:40:40;;;;;;;11.80;11.30;;;12.20;99.90;;;;;;4940948;29;20469;-77
2021/12/31 03:43:08;;;;;;;11.73;11.27;;;12.20;99.90;;;;;;4941259;29;20527;-77
2021/12/31 03:45:35;;;;;;;12.47;12.07;;;12.10;99.90;;;;;;4939923;29;20556;-74
2021/12/31 03:48:01;;;;;;;13.03;12.33;;;12.00;99.90;;;;;;4943899;29;20543;-77
2021/12/31 03:50:28;;;;;;;12.97;12.47;;;11.80;99.90;;;;;;4942497;29;20450;-76
2021/12/31 03:52:55;;;;;;;13.33;12.83;;;11.60;99.90;;;;;;4942523;29;20444;-78
2021/12/31 03:55:22;;;;;;;13.60;13.00;;;11.50;99.90;;;;;;4943834;29;20942;-79
2021/12/31 03:57:50;;;;;;;13.30;12.60;;;11.40;99.90;;;;;;4942346;29;20849;-77
2021/12/31 04:00:17;;;;;;;12.67;12.27;;;11.40;99.90;;;;;;4942170;29;20449;-78
2021/12/31 04:02:43;;;;;;;12.73;12.10;;;11.40;99.90;;;;;;4943699;29;20890;-78
2021/12/31 04:05:10;;;;;;;13.87;13.27;;;11.40;99.90;;;;;;4941490;29;20450;-78
2021/12/31 04:07:37;;;;;;;13.00;12.40;;;11.40;99.90;;;;;;4942342;29;20460;-77
2021/12/31 04:10:04;;;;;;;12.80;12.30;;;11.40;99.90;;;;;;4943588;29;20943;-77
2021/12/31 04:12:31;;;;;;;12.07;11.60;;;11.50;99.90;;;;;;4942128;29;20825;-77
2021/12/31 04:14:59;;;;;;;13.00;12.40;;;11.50;99.90;;;;;;4941779;29;20452;-78
2021/12/31 04:17:26;;;;;;;13.30;12.80;;;11.40;99.90;;;;;;4941481;29;20453;-78
2021/12/31 04:19:56;;;;;;;13.43;12.83;;;11.40;99.90;;;;;;4942542;29;20852;-79
2021/12/31 04:22:24;;;;;;;12.60;12.10;;;11.40;99.90;;;;;;4943101;29;20564;-80
2021/12/31 04:24:54;;;;;;;13.57;12.97;;;11.40;99.90;;;;;;4942331;29;20433;-79
2021/12/31 04:27:22;;;;;;;13.30;12.70;;;11.20;99.90;;;;;;4941508;29;20446;-77
2021/12/31 04:29:52;;;;;;;13.70;13.10;;;11.00;99.90;;;;;;4942877;29;20474;-79
2021/12/31 04:32:22;;;;;;;13.43;12.73;;;10.90;99.90;;;;;;4940892;29;20452;-79
2021/12/31 04:34:49;;;;;;;13.53;12.93;;;10.80;99.90;;;;;;4933997;29;20971;-79
2021/12/31 04:37:17;;;;;;;13.50;12.90;;;10.70;99.90;;;;;;4933848;29;20461;-79
2021/12/31 04:39:43;;;;;;;13.80;13.10;;;10.60;99.90;;;;;;4933794;29;20502;-79
2021/12/31 04:42:10;;;;;;;14.20;13.70;;;10.60;99.90;;;;;;4933962;29;20464;-77
2021/12/31 04:44:37;;;;;;;13.97;13.27;;;10.50;99.90;;;;;;4933860;29;20832;-78
2021/12/31 04:47:05;;;;;;;14.03;13.43;;;10.50;99.90;;;;;;4931714;29;20525;-77
2021/12/31 04:49:33;;;;;;;14.17;13.53;;;10.40;99.90;;;;;;4914107;29;20462;-77
2021/12/31 04:51:59;;;;;;;15.00;14.30;;;10.30;99.90;;;;;;4914502;29;20969;-77
2021/12/31 04:54:26;;;;;;;15.50;14.40;;;10.30;99.90;;;;;;4914572;29;20449;-77
2021/12/31 04:56:54;;;;;;;15.20;14.30;;;10.20;99.90;;;;;;4914767;29;20458;-77
2021/12/31 04:59:21;;;;;;;14.23;13.60;;;10.20;99.90;;;;;;4914394;29;20454;-77
2021/12/31 05:01:48;;;;;;;14.93;14.23;;;10.10;99.90;;;;;;4914596;29;20458;-77
2021/12/31 05:04:16;;;;;;;14.63;14.03;;;10.00;99.90;;;;;;4914412;29;20494;-77
2021/12/31 05:06:44;;;;;;;15.30;14.47;;;9.90;99.90;;;;;;4914447;29;21148;-77
2021/12/31 05:09:11;;;;;;;15.50;14.77;;;9.90;99.90;;;;;;4914384;29;20462;-77
2021/12/31 05:11:38;;;;;;;15.43;14.53;;;9.90;99.90;;;;;;4914406;29;20463;-77
2021/12/31 05:14:05;;;;;;;15.80;14.90;;;9.90;99.90;;;;;;4914797;29;20458;-77
2021/12/31 05:16:32;;;;;;;15.37;14.43;;;9.80;99.90;;;;;;4914098;29;20465;-78
2021/12/31 05:18:59;;;;;;;14.83;14.13;;;9.80;99.90;;;;;;4914197;29;20452;-77
2021/12/31 05:21:25;;;;;;;15.40;14.70;;;9.70;99.90;;;;;;4913792;29;20475;-78
2021/12/31 05:23:53;;;;;;;15.20;14.50;;;9.70;99.90;;;;;;4914385;29;20497;-77
2021/12/31 05:26:20;;;;;;;15.20;14.40;;;9.70;99.90;;;;;;4914369;29;20451;-77
2021/12/31 05:28:47;;;;;;;15.73;14.93;;;9.60;99.90;;;;;;4913800;29;20465;-78
2021/12/31 05:31:13;;;;;;;16.37;15.57;;;9.50;99.90;;;;;;4914469;29;20526;-81
2021/12/31 05:33:40;;;;;;;16.03;15.17;;;9.50;99.90;;;;;;4931187;29;20443;-81
2021/12/31 05:36:07;;;;;;;16.57;15.67;;;9.40;99.90;;;;;;4937133;29;20461;-81
2021/12/31 05:38:34;;;;;;;16.23;15.40;;;9.40;99.90;;;;;;4919497;29;20470;-82
2021/12/31 05:41:02;;;;;;;15.97;15.17;;;9.30;99.90;;;;;;4915760;29;20454;-82
2021/12/31 05:43:29;;;;;;;15.70;14.87;;;9.30;99.90;;;;;;4914511;29;20489;-82
2021/12/31 05:45:55;;;;;;;15.30;14.60;;;9.30;99.90;;;;;;4914573;29;20767;-81
2021/12/31 05:48:22;;;;;;;15.70;15.00;;;9.20;99.90;;;;;;4916177;29;20470;-82
2021/12/31 05:50:49;;;;;;;14.37;13.60;;;9.20;99.90;;;;;;4922165;29;20818;-81
2021/12/31 05:53:15;;;;;;;15.47;14.67;;;9.20;99.90;;;;;;4913683;29;20461;-80
2021/12/31 05:55:42;;;;;;;16.63;15.23;;;9.20;99.90;;;;;;4913741;29;20458;-80
2021/12/31 05:58:10;;;;;;;16.10;15.40;;;9.10;99.90;;;;;;4913963;29;20462;-82
2021/12/31 06:00:37;;;;;;;17.57;16.63;;;9.20;99.90;;;;;;4913869;29;20826;-77
2021/12/31 06:03:03;;;;;;;18.07;16.97;;;9.20;99.90;;;;;;4947317;29;20445;-78
2021/12/31 06:05:30;;;;;;;16.80;16.00;;;9.20;99.90;;;;;;4947527;29;20448;-78
2021/12/31 06:07:57;;;;;;;16.03;15.13;;;9.20;99.90;;;;;;4950547;29;20453;-78
2021/12/31 06:10:25;;;;;;;17.57;16.20;;;9.10;99.90;;;;;;4951157;29;20487;-79
2021/12/31 06:12:56;;;;;;;17.00;16.20;;;9.20;99.90;;;;;;4952180;29;20876;-78
2021/12/31 06:15:25;;;;;;;16.53;15.83;;;9.10;99.90;;;;;;4952145;29;20449;-79
2021/12/31 06:17:52;;;;;;;16.50;15.70;;;9.10;99.90;;;;;;4952206;29;20515;-79
2021/12/31 06:20:19;;;;;;;16.43;15.73;;;9.20;99.90;;;;;;4951982;29;20519;-79
2021/12/31 06:22:46;;;;;;;16.60;15.53;;;9.20;99.90;;;;;;4951894;29;20482;-79
2021/12/31 06:25:13;;;;;;;15.90;15.20;;;9.10;99.90;;;;;;4951977;29;20523;-79
2021/12/31 06:27:39;;;;;;;16.03;15.23;;;9.10;99.90;;;;;;4952683;28;20459;-77
2021/12/31 06:30:07;;;;;;;17.60;16.70;;;9.00;99.90;;;;;;4955792;29;20459;-78
2021/12/31 06:32:35;;;;;;;17.60;16.60;;;9.00;99.90;;;;;;4955597;29;20467;-78
2021/12/31 06:35:02;;;;;;;16.60;15.80;;;8.90;99.90;;;;;;4955395;29;20467;-78
2021/12/31 06:37:29;;;;;;;16.80;15.70;;;8.90;99.90;;;;;;4955368;29;20857;-77
2021/12/31 06:39:55;;;;;;;17.20;16.37;;;8.90;99.90;;;;;;4955272;29;20459;-77
2021/12/31 06:42:25;;;;;;;18.20;17.13;;;8.80;99.90;;;;;;4953524;29;20539;-78
2021/12/31 06:44:52;;;;;;;17.80;16.90;;;8.80;99.90;;;;;;4954987;29;20491;-78
2021/12/31 06:47:19;;;;;;;18.03;17.03;;;8.80;99.90;;;;;;4954647;29;20966;-78
2021/12/31 06:49:47;;;;;;;17.90;16.80;;;8.80;99.90;;;;;;4954678;29;20483;-78
2021/12/31 06:52:13;;;;;;;17.80;17.00;;;8.80;99.90;;;;;;4955020;29;20453;-78
2021/12/31 06:54:40;;;;;;;17.80;16.87;;;8.80;99.90;;;;;;4954994;29;20984;-78
2021/12/31 06:57:07;;;;;;;18.63;17.63;;;8.70;99.90;;;;;;4955308;29;20456;-77
2021/12/31 06:59:33;;;;;;;19.03;17.73;;;8.70;99.90;;;;;;4955096;29;20452;-77
2021/12/31 07:02:00;;;;;;;19.43;18.40;;;8.60;99.90;;;;;;4954917;29;20878;-77
2021/12/31 07:04:27;;;;;;;18.97;17.87;;;8.60;99.90;;;;;;4954621;29;20512;-77
2021/12/31 07:06:55;;;;;;;18.77;17.77;;;8.60;99.90;;;;;;4955273;29;20456;-77
2021/12/31 07:09:21;;;;;;;18.80;17.90;;;8.60;99.90;;;;;;4955377;29;20819;-77
2021/12/31 07:11:48;;;;;;;19.67;18.57;;;8.70;99.90;;;;;;4955189;29;20885;-77
2021/12/31 07:14:15;;;;;;;19.97;18.87;;;8.70;99.90;;;;;;4954906;29;20508;-77
2021/12/31 07:16:41;;;;;;;20.47;19.20;;;8.70;99.90;;;;;;4938051;29;20485;-77
2021/12/31 07:19:08;;;;;;;20.00;18.57;;;8.60;99.90;;;;;;4916482;29;20470;-77
2021/12/31 07:21:35;;;;;;;20.47;19.23;;;8.60;99.90;;;;;;4917798;29;20486;-77
2021/12/31 07:24:03;;;;;;;19.83;18.73;;;8.60;99.90;;;;;;4934702;29;20493;-77
2021/12/31 07:26:30;;;;;;;19.17;18.17;;;8.70;99.90;;;;;;4934275;29;20484;-76
2021/12/31 07:28:56;;;;;;;20.60;19.50;;;8.70;99.90;;;;;;4935289;29;20464;-76
2021/12/31 07:31:23;;;;;;;20.50;19.30;;;8.60;99.90;;;;;;4935365;29;20467;-77
2021/12/31 07:33:50;;;;;;;20.90;19.80;;;8.60;99.90;;;;;;4935143;29;20458;-77
2021/12/31 07:36:16;;;;;;;20.80;19.60;;;8.60;99.90;;;;;;4935116;29;20816;-76
2021/12/31 07:38:49;;;;;;;20.77;19.30;;;8.60;99.90;;;;;;4934878;29;20462;-76
2021/12/31 07:41:17;;;;;;;21.10;19.90;;;8.50;99.90;;;;;;4934842;29;20458;-77
2021/12/31 07:43:43;;;;;;;19.53;18.53;;;8.60;99.90;;;;;;4934872;29;20520;-77
2021/12/31 07:46:12;;;;;;;21.03;19.67;;;8.50;99.90;;;;;;4934880;29;20461;-77
2021/12/31 07:48:39;;;;;;;21.30;20.00;;;8.50;99.90;;;;;;4934886;29;20524;-77
2021/12/31 07:51:05;;;;;;;21.67;20.27;;;8.70;99.90;;;;;;4934866;29;20460;-78
2021/12/31 07:53:32;;;;;;;22.80;21.40;;;8.90;99.90;;;;;;4933761;29;20449;-75
2021/12/31 07:55:59;;;;;;;21.20;20.00;;;9.10;99.90;;;;;;4934721;29;20553;-78
2021/12/31 07:58:28;;;;;;;20.17;19.07;;;9.40;99.90;;;;;;4933403;29;20461;-79
2021/12/31 08:00:55;;;;;;;20.07;19.03;;;9.60;99.90;;;;;;4934470;29;20499;-77
2021/12/31 08:03:21;;;;;;;18.70;17.70;;;9.70;99.90;;;;;;4938424;29;20467;-78
2021/12/31 08:05:48;;;;;;;18.10;17.10;;;9.90;99.90;;;;;;4945314;29;20504;-78
2021/12/31 08:08:15;;;;;;;17.13;16.33;;;10.20;99.90;;;;;;4933571;29;20775;-78
2021/12/31 08:10:41;;;;;;;17.77;16.77;;;10.30;99.90;;;;;;4938253;29;20453;-78
2021/12/31 08:13:09;;;;;;;16.03;15.13;;;10.60;99.90;;;;;;4953550;29;20467;-79
2021/12/31 08:15:37;;;;;;;16.23;15.30;;;10.70;99.90;;;;;;4953520;29;20594;-78
2021/12/31 08:18:03;;;;;;;15.70;14.50;;;11.00;99.90;;;;;;4953389;29;20489;-78
2021/12/31 08:20:30;;;;;;;14.13;13.53;;;11.00;99.90;;;;;;4950928;29;20492;-79
2021/12/31 08:23:06;;;;;;;14.20;13.60;;;11.30;99.90;;;;;;4947059;29;20485;-79
2021/12/31 08:25:33;;;;;;;14.13;13.43;;;11.60;99.90;;;;;;4953334;29;20520;-78
2021/12/31 08:28:00;;;;;;;14.07;13.47;;;11.50;99.90;;;;;;4953139;29;20518;-79
2021/12/31 08:30:26;;;;;;;12.93;12.43;;;11.60;99.90;;;;;;4953250;29;20906;-79
2021/12/31 08:32:54;;;;;;;14.30;13.67;;;11.70;99.90;;;;;;4953281;29;20984;-77
2021/12/31 08:35:21;;;;;;;14.43;13.83;;;11.70;99.90;;;;;;4931471;29;20438;-78
2021/12/31 08:37:49;;;;;;;14.70;13.80;;;11.70;99.90;;;;;;4923523;29;20442;-79
2021/12/31 08:40:16;;;;;;;13.30;12.70;;;11.80;99.90;;;;;;4922126;29;20811;-80
2021/12/31 08:42:43;;;;;;;13.20;12.70;;;11.80;99.90;;;;;;4924001;29;20453;-79
2021/12/31 08:45:10;;;;;;;13.87;13.27;;;11.80;99.90;;;;;;4923407;29;20485;-80
2021/12/31 08:47:37;;;;;;;13.10;12.50;;;11.90;99.90;;;;;;4922244;29;20450;-80
2021/12/31 08:50:06;;;;;;;13.73;13.10;;;12.20;99.90;;;;;;4923092;29;20951;-81
2021/12/31 08:52:32;;;;;;;13.60;13.10;;;12.50;99.90;;;;;;4923833;29;20451;-81
2021/12/31 08:54:59;;;;;;;12.83;12.33;;;12.60;99.90;;;;;;4922154;29;20513;-81
2021/12/31 08:57:26;;;;;;;14.30;13.53;;;12.60;99.90;;;;;;4923397;29;20821;-79
2021/12/31 08:59:52;;;;;;;13.10;12.57;;;12.50;99.90;;;;;;4925095;29;20450;-79
2021/12/31 09:02:19;;;;;;;13.70;13.10;;;12.50;99.90;;;;;;4923879;29;20453;-80
2021/12/31 09:04:46;;;;;;;13.37;12.77;;;12.70;99.90;;;;;;4922728;29;21059;-79
2021/12/31 09:07:14;;;;;;;13.30;12.80;;;12.70;99.90;;;;;;4924581;29;20442;-80
2021/12/31 09:09:41;;;;;;;12.77;12.23;;;12.80;99.90;;;;;;4933292;29;20453;-81
2021/12/31 09:12:08;;;;;;;13.37;12.87;;;12.90;99.90;;;;;;4933586;29;20449;-83
2021/12/31 09:14:35;;;;;;;13.20;12.70;;;13.30;99.90;;;;;;4933584;29;20450;-83
2021/12/31 09:17:02;;;;;;;13.73;13.23;;;13.70;99.90;;;;;;4933453;29;20453;-82
2021/12/31 09:19:29;;;;;;;13.00;12.27;;;13.90;99.90;;;;;;4933398;29;20464;-82
2021/12/31 09:21:55;;;;;;;12.70;12.10;;;13.90;99.90;;;;;;4933267;29;20489;-82
2021/12/31 09:24:23;;;;;;;12.90;12.30;;;14.00;99.90;;;;;;4933537;29;20500;-81
2021/12/31 09:26:50;;;;;;;12.40;11.80;;;13.80;99.90;;;;;;4934581;28;20485;-81
2021/12/31 09:29:18;;;;;;;11.80;11.40;;;14.00;99.90;;;;;;4954579;29;20446;-81
2021/12/31 09:31:45;;;;;;;12.03;11.50;;;14.50;99.90;;;;;;4933633;29;20483;-80
2021/12/31 09:34:12;;;;;;;12.70;11.87;;;14.30;99.90;;;;;;4933618;29;20449;-81
2021/12/31 09:36:39;;;;;;;12.33;11.83;;;14.30;99.90;;;;;;4933114;29;20449;-80
2021/12/31 09:39:05;;;;;;;11.70;11.30;;;14.20;99.90;;;;;;4933117;29;20458;-80
2021/12/31 09:41:33;;;;;;;12.40;11.70;;;14.10;99.90;;;;;;4932978;29;20453;-80
2021/12/31 09:44:00;;;;;;;11.67;11.27;;;14.30;99.90;;;;;;4933413;29;20461;-90
2021/12/31 09:46:27;;;;;;;12.30;11.80;;;14.10;99.90;;;;;;4930805;29;21055;-79
2021/12/31 09:48:54;;;;;;;12.20;11.77;;;14.00;99.90;;;;;;4933046;29;20450;-79
2021/12/31 09:51:22;;;;;;;11.90;11.40;;;14.00;99.90;;;;;;4932983;29;20457;-80
2021/12/31 09:53:50;;;;;;;11.80;11.40;;;14.10;99.90;;;;;;4933239;29;20844;-80
2021/12/31 09:56:16;;;;;;;11.83;11.33;;;14.10;99.90;;;;;;4933018;29;20458;-79
2021/12/31 09:58:44;;;;;;;13.07;12.30;;;14.00;99.90;;;;;;4932901;29;20468;-79
2021/12/31 10:01:11;;;;;;;11.70;11.30;;;14.00;99.90;;;;;;4932531;29;20462;-79
2021/12/31 10:03:38;;;;;;;11.60;11.10;;;14.20;99.90;;;;;;4934921;29;20453;-78
2021/12/31 10:06:08;;;;;;;12.77;12.20;;;14.40;99.90;;;;;;4936557;29;20488;-79
2021/12/31 10:08:42;;;;;;;12.30;11.80;;;14.50;99.90;;;;;;4936990;29;20504;-79
2021/12/31 10:11:11;;;;;;;11.43;11.00;;;14.70;99.90;;;;;;4936661;29;20453;-80
2021/12/31 10:13:40;;;;;;;12.80;12.23;;;14.80;99.90;;;;;;4943734;29;20459;-80
2021/12/31 10:16:20;;;;;;;12.70;11.90;;;14.80;99.90;;;;;;4945844;29;20491;-80
2021/12/31 10:18:47;;;;;;;11.60;11.20;;;15.20;99.90;;;;;;4945839;29;20452;-80
2021/12/31 10:21:15;;;;;;;11.93;11.43;;;15.20;99.90;;;;;;4944414;29;20465;-79
2021/12/31 10:23:42;;;;;;;11.90;11.30;;;15.10;99.90;;;;;;4943874;29;21039;-79
2021/12/31 10:26:10;;;;;;;12.47;11.87;;;14.90;99.90;;;;;;4938728;29;20484;-79
2021/12/31 10:28:38;;;;;;;12.10;11.60;;;15.10;99.90;;;;;;4936354;29;20453;-79
2021/12/31 10:31:16;;;;;;;11.63;11.23;;;15.10;99.90;;;;;;4936410;29;20445;-79
2021/12/31 10:33:44;;;;;;;12.17;11.57;;;15.20;99.90;;;;;;4936309;29;20470;-79
2021/12/31 10:36:30;;;;;;;11.93;11.53;;;15.30;99.90;;;;;;4935939;29;20873;-78
2021/12/31 10:38:58;;;;;;;12.30;11.70;;;15.50;99.90;;;;;;4936202;29;20463;-79
2021/12/31 10:41:25;;;;;;;12.07;11.57;;;16.10;99.90;;;;;;4936037;29;20461;-78
2021/12/31 10:43:57;;;;;;;12.77;12.27;;;16.20;99.90;;;;;;4936125;29;20458;-79
2021/12/31 10:46:26;;;;;;;12.37;11.97;;;16.20;99.90;;;;;;4936082;29;21320;-78
2021/12/31 10:48:55;;;;;;;11.90;11.47;;;16.40;99.90;;;;;;4936181;29;20495;-78
2021/12/31 10:51:37;;;;;;;11.90;11.40;;;16.60;99.90;;;;;;4935906;29;20457;-79
2021/12/31 10:54:27;;;;;;;11.50;11.10;;;16.80;99.90;;;;;;4936101;29;20547;-79
2021/12/31 10:56:54;;;;;;;11.83;11.43;;;17.00;99.90;;;;;;4936121;29;20548;-79
2021/12/31 10:59:21;;;;;;;11.60;11.20;;;17.20;99.90;;;;;;4935784;29;20505;-80
2021/12/31 11:01:49;;;;;;;12.83;12.33;;;17.60;99.90;;;;;;4935678;29;20474;-79
2021/12/31 11:04:18;;;;;;;12.10;11.70;;;18.10;99.90;;;;;;4935919;29;20464;-79
2021/12/31 11:07:01;;;;;;;12.57;12.07;;;18.10;99.90;;;;;;4935620;29;21022;-80
2021/12/31 11:09:30;;;;;;;12.30;11.80;;;17.90;99.90;;;;;;4934895;29;20899;-80
2021/12/31 11:12:00;;;;;;;13.50;12.73;;;17.80;99.90;;;;;;4935468;29;20456;-80
2021/12/31 11:14:27;;;;;;;13.03;12.53;;;18.10;99.90;;;;;;4934998;29;20540;-80
2021/12/31 11:16:55;;;;;;;13.47;12.87;;;17.90;99.90;;;;;;4935589;29;20458;-80
2021/12/31 11:19:22;;;;;;;12.50;12.10;;;18.30;99.90;;;;;;4935544;29;20465;-80
2021/12/31 11:21:49;;;;;;;13.30;12.70;;;18.50;99.90;;;;;;4935175;29;20481;-80
2021/12/31 11:24:30;;;;;;;12.87;12.27;;;18.40;99.90;;;;;;4935559;29;20565;-81
2021/12/31 11:26:58;;;;;;;13.47;12.77;;;18.10;99.90;;;;;;4935133;29;20579;-80
2021/12/31 11:29:35;;;;;;;12.67;12.17;;;17.90;99.90;;;;;;4934994;29;20449;-80
2021/12/31 11:32:04;;;;;;;13.00;12.50;;;18.10;99.90;;;;;;4935524;29;20500;-80
2021/12/31 11:34:31;;;;;;;12.60;12.13;;;18.10;99.90;;;;;;4933731;29;20472;-80
2021/12/31 11:36:58;;;;;;;12.83;12.33;;;17.70;99.90;;;;;;4934407;29;20464;-79
2021/12/31 11:39:28;;;;;;;13.00;12.50;;;17.70;99.90;;;;;;4953847;29;20524;-80
2021/12/31 11:41:57;;;;;;;11.90;11.50;;;17.80;99.90;;;;;;4934594;29;20465;-78
2021/12/31 11:44:26;;;;;;;13.37;12.87;;;18.10;99.90;;;;;;4934875;29;20462;-78
2021/12/31 11:47:13;;;;;;;12.87;12.37;;;18.10;99.90;;;;;;4935017;29;21007;-79
2021/12/31 11:49:40;;;;;;;12.60;12.10;;;17.70;99.90;;;;;;4934897;29;20825;-79
2021/12/31 11:52:10;;;;;;;12.90;12.40;;;17.50;99.90;;;;;;4934961;29;20489;-79
2021/12/31 11:54:38;;;;;;;12.90;12.40;;;17.50;99.90;;;;;;4935514;29;20453;-78
2021/12/31 11:57:19;;;;;;;12.53;12.03;;;17.30;99.90;;;;;;4935022;29;20457;-79
2021/12/31 11:59:51;;;;;;;13.33;12.93;;;17.90;99.90;;;;;;4934733;29;20496;-79
2021/12/31 12:02:22;;;;;;;13.00;12.17;;;18.80;99.90;;;;;;4934747;29;20489;-79
2021/12/31 12:05:08;;;;;;;13.40;12.90;;;19.60;99.90;;;;;;4934592;29;20457;-79
2021/12/31 12:07:36;;;;;;;13.10;12.60;;;19.50;99.90;;;;;;4934560;29;20500;-80
2021/12/31 12:10:12;;;;;;;11.80;11.40;;;19.40;99.90;;;;;;4934408;29;20453;-79
2021/12/31 12:12:40;;;;;;;12.57;12.07;;;19.40;99.90;;;;;;4934649;29;20801;-79
2021/12/31 12:15:25;;;;;;;12.60;12.10;;;19.70;99.90;;;;;;4934407;29;20484;-79
2021/12/31 12:17:54;;;;;;;12.57;12.07;;;19.40;99.90;;;;;;4935041;29;20461;-79
2021/12/31 12:20:22;;;;;;;12.20;11.70;;;18.50;99.90;;;;;;4934786;29;20476;-79
2021/12/31 12:22:51;;;;;;;12.40;11.90;;;18.30;99.90;;;;;;4946476;29;20587;-79
2021/12/31 12:25:19;;;;;;;12.10;11.70;;;18.60;99.90;;;;;;4952568;28;20469;-79
2021/12/31 12:27:48;;;;;;;12.80;12.33;;;18.80;99.90;;;;;;4953145;29;20463;-79
2021/12/31 12:30:16;;;;;;;11.83;11.43;;;19.10;99.90;;;;;;4953267;29;20935;-79
2021/12/31 12:32:54;;;;;;;12.30;11.80;;;19.30;99.90;;;;;;4948237;29;20458;-79
2021/12/31 12:35:24;;;;;;;12.40;12.00;;;20.00;99.90;;;;;;4934110;29;20500;-79
2021/12/31 12:37:58;;;;;;;13.03;12.53;;;20.40;99.90;;;;;;4934055;29;20449;-79
2021/12/31 12:40:36;;;;;;;13.10;12.33;;;20.80;99.90;;;;;;4934057;29;20941;-79
2021/12/31 12:43:04;;;;;;;12.10;11.70;;;20.80;99.90;;;;;;4934069;29;21034;-79
2021/12/31 12:45:32;;;;;;;11.83;11.40;;;20.80;99.70;;;;;;4933793;29;21007;-78
2021/12/31 12:47:59;;;;;;;12.80;12.30;;;19.80;99.90;;;;;;4933942;29;20460;-79
2021/12/31 12:50:27;;;;;;;12.70;12.20;;;19.10;99.90;;;;;;4933441;29;20483;-80
2021/12/31 12:52:54;;;;;;;13.07;12.47;;;18.70;99.90;;;;;;4935003;29;20444;-79
2021/12/31 12:55:21;;;;;;;12.80;12.30;;;18.40;99.90;;;;;;4942385;29;20481;-79
2021/12/31 12:57:53;;;;;;;12.13;11.73;;;18.30;99.90;;;;;;4933380;29;20462;-78
2021/12/31 13:00:32;;;;;;;12.27;11.80;;;18.30;99.90;;;;;;4933520;29;20485;-78
2021/12/31 13:03:05;;;;;;;12.30;11.80;;;18.10;99.90;;;;;;4933451;29;20881;-79
2021/12/31 13:05:33;;;;;;;12.27;11.77;;;18.10;99.90;;;;;;4933203;29;21081;-79
2021/12/31 13:08:00;;;;;;;12.47;11.97;;;17.90;99.90;;;;;;4933141;29;20559;-79
2021/12/31 13:10:28;;;;;;;11.63;11.23;;;18.10;99.90;;;;;;4933446;29;20454;-79
2021/12/31 13:12:55;;;;;;;12.20;11.70;;;18.10;99.90;;;;;;4933820;29;20560;-87
2021/12/31 13:15:23;;;;;;;12.27;11.87;;;17.90;99.90;;;;;;4933584;29;20456;-77
2021/12/31 13:18:00;;;;;;;13.00;12.50;;;17.70;99.90;;;;;;4931377;29;20461;-79
2021/12/31 13:20:28;;;;;;;12.20;11.80;;;17.40;99.90;;;;;;4931670;29;20821;-79
2021/12/31 13:22:58;;;;;;;13.23;12.73;;;17.00;99.90;;;;;;4932611;29;20489;-79
2021/12/31 13:25:39;;;;;;;13.27;12.70;;;16.80;99.90;;;;;;4933033;29;20944;-79
2021/12/31 13:28:14;;;;;;;13.80;13.30;;;16.70;99.90;;;;;;4933192;29;20453;-79
2021/12/31 13:30:57;;;;;;;12.30;11.90;;;16.60;99.90;;;;;;4932889;29;20456;-79
2021/12/31 13:33:26;;;;;;;13.50;13.00;;;16.60;99.90;;;;;;4932986;29;20457;-80
2021/12/31 13:36:12;;;;;;;12.60;12.17;;;16.70;99.90;;;;;;4933065;29;20458;-79